createdAt,value
2018-08-06T00:00:52.319Z,18.85
2018-08-06T00:03:20.376Z,18.80
2018-08-06T00:05:48.439Z,18.77
2018-08-06T00:08:16.492Z,18.72
2018-08-06T00:10:44.528Z,18.67
2018-08-06T00:13:12.732Z,18.64
2018-08-06T00:15:40.772Z,18.63
2018-08-06T00:18:08.833Z,18.56
2018-08-06T00:20:36.893Z,18.50
2018-08-06T00:23:05.123Z,18.42
2018-08-06T00:25:33.165Z,18.36
2018-08-06T00:28:01.195Z,18.33
2018-08-06T00:30:29.246Z,18.25
2018-08-06T00:32:57.299Z,18.20
2018-08-06T00:35:25.718Z,18.12
2018-08-06T00:37:53.771Z,18.04
2018-08-06T00:40:22.065Z,18.01
2018-08-06T00:42:50.576Z,18.01
2018-08-06T00:45:19.995Z,18.03
2018-08-06T00:47:48.558Z,18.04
2018-08-06T00:50:16.605Z,18.01
2018-08-06T00:52:44.660Z,17.91
2018-08-06T00:55:15.815Z,17.89
2018-08-06T00:57:43.977Z,17.88
2018-08-06T01:00:14.732Z,17.83
2018-08-06T01:02:42.895Z,17.80
2018-08-06T01:05:12.149Z,17.76
2018-08-06T01:07:40.539Z,17.70
2018-08-06T01:10:11.699Z,17.56
2018-08-06T01:12:40.497Z,17.48
2018-08-06T01:15:09.906Z,17.50
2018-08-06T01:17:37.990Z,17.48
2018-08-06T01:20:07.740Z,17.48
2018-08-06T01:22:35.823Z,17.47
2018-08-06T01:25:04.071Z,17.47
2018-08-06T01:27:32.168Z,17.47
2018-08-06T01:30:00.241Z,17.49
2018-08-06T01:32:28.285Z,17.49
2018-08-06T01:34:56.311Z,17.50
2018-08-06T01:37:24.587Z,17.50
2018-08-06T01:39:52.611Z,17.47
2018-08-06T01:42:20.652Z,17.43
2018-08-06T01:44:48.969Z,17.37
2018-08-06T01:47:17.011Z,17.33
2018-08-06T01:49:45.081Z,17.30
2018-08-06T01:52:13.175Z,17.23
2018-08-06T01:54:41.239Z,17.26
2018-08-06T01:57:09.297Z,17.23
2018-08-06T01:59:37.356Z,17.20
2018-08-06T02:02:05.980Z,17.15
2018-08-06T02:04:34.271Z,17.14
2018-08-06T02:07:02.319Z,17.13
2018-08-06T02:09:30.354Z,17.13
2018-08-06T02:11:58.417Z,17.11
2018-08-06T02:14:26.470Z,17.04
2018-08-06T02:16:54.637Z,17.00
2018-08-06T02:19:22.679Z,16.98
2018-08-06T02:21:50.717Z,16.95
2018-08-06T02:24:19.243Z,16.92
2018-08-06T02:26:47.285Z,16.91
2018-08-06T02:29:15.361Z,16.90
2018-08-06T02:31:43.404Z,16.86
2018-08-06T02:34:11.450Z,16.82
2018-08-06T02:36:39.770Z,16.79
2018-08-06T02:39:09.460Z,16.74
2018-08-06T02:41:37.534Z,16.70
2018-08-06T02:44:05.638Z,16.72
2018-08-06T02:46:33.690Z,16.73
2018-08-06T02:54:44.325Z,16.78
2018-08-06T02:57:12.674Z,16.78
2018-08-06T02:59:40.711Z,16.76
2018-08-06T03:02:08.763Z,16.69
2018-08-06T03:04:36.802Z,16.65
2018-08-06T03:07:05.236Z,16.63
2018-08-06T03:09:33.294Z,16.63
2018-08-06T03:12:01.382Z,16.64
2018-08-06T03:14:29.423Z,16.63
2018-08-06T03:16:57.484Z,16.60
2018-08-06T03:19:25.739Z,16.59
2018-08-06T03:21:53.837Z,16.57
2018-08-06T03:24:22.403Z,16.59
2018-08-06T03:26:50.718Z,16.61
2018-08-06T03:29:18.779Z,16.60
2018-08-06T03:31:46.828Z,16.57
2018-08-06T03:34:14.921Z,16.54
2018-08-06T03:36:42.992Z,16.49
2018-08-06T03:39:11.849Z,16.45
2018-08-06T03:41:39.887Z,16.38
2018-08-06T03:44:08.301Z,16.31
2018-08-06T03:46:36.487Z,16.26
2018-08-06T03:49:04.635Z,16.22
2018-08-06T03:51:33.061Z,16.21
2018-08-06T03:54:01.131Z,16.15
2018-08-06T03:56:29.203Z,16.10
2018-08-06T03:58:57.267Z,16.04
2018-08-06T04:01:25.325Z,16.01
2018-08-06T04:03:53.386Z,16.01
2018-08-06T04:06:21.442Z,16.02
2018-08-06T04:11:24.214Z,16.00
2018-08-06T04:13:52.270Z,16.05
2018-08-06T04:16:20.352Z,16.09
2018-08-06T04:18:48.391Z,16.15
2018-08-06T04:21:16.451Z,16.19
2018-08-06T04:23:44.516Z,16.23
2018-08-06T04:26:12.560Z,16.27
2018-08-06T04:28:41.012Z,16.30
2018-08-06T04:31:09.086Z,16.32
2018-08-06T04:33:37.130Z,16.36
2018-08-06T04:36:05.577Z,16.39
2018-08-06T04:38:33.681Z,16.45
2018-08-06T04:41:01.699Z,16.51
2018-08-06T04:43:29.738Z,16.68
2018-08-06T04:45:57.805Z,17.25
2018-08-06T04:48:25.889Z,17.94
2018-08-06T04:50:54.584Z,18.58
2018-08-06T04:53:22.994Z,19.26
2018-08-06T04:55:51.087Z,19.96
2018-08-06T04:58:19.127Z,20.65
2018-08-06T05:00:47.183Z,21.27
2018-08-06T05:03:15.223Z,21.87
2018-08-06T05:05:43.284Z,22.40
2018-08-06T05:08:11.303Z,23.03
2018-08-06T05:10:39.352Z,23.74
2018-08-06T05:13:07.450Z,24.44
2018-08-06T05:15:35.475Z,24.64
2018-08-06T05:18:03.813Z,25.00
2018-08-06T05:20:31.863Z,25.51
2018-08-06T05:22:59.899Z,26.31
2018-08-06T05:25:27.985Z,26.66
2018-08-06T05:27:56.036Z,26.89
2018-08-06T05:30:24.458Z,27.10
2018-08-06T05:32:52.523Z,27.42
2018-08-06T05:35:20.620Z,27.58
2018-08-06T05:37:48.815Z,27.87
2018-08-06T05:40:16.891Z,28.01
2018-08-06T05:42:44.939Z,28.34
2018-08-06T05:45:13.016Z,28.62
2018-08-06T05:47:41.119Z,28.78
2018-08-06T05:50:11.501Z,29.03
2018-08-06T05:52:39.547Z,29.10
2018-08-06T05:55:08.508Z,29.28
2018-08-06T05:57:36.596Z,29.49
2018-08-06T06:00:10.186Z,29.68
2018-08-06T06:02:38.324Z,29.34
2018-08-06T06:05:06.496Z,29.07
2018-08-06T06:07:34.620Z,29.15
2018-08-06T06:10:02.771Z,29.39
2018-08-06T06:12:30.877Z,29.73
2018-08-06T06:14:59.246Z,29.97
2018-08-06T06:17:27.334Z,29.92
2018-08-06T06:19:55.408Z,29.99
2018-08-06T06:22:23.521Z,29.77
2018-08-06T06:24:51.614Z,29.66
2018-08-06T06:27:19.683Z,29.88
2018-08-06T06:29:47.763Z,29.90
2018-08-06T06:32:15.828Z,30.10
2018-08-06T06:34:44.210Z,30.59
2018-08-06T06:37:12.207Z,31.02
2018-08-06T06:39:40.559Z,31.32
2018-08-06T06:42:08.688Z,31.64
2018-08-06T06:44:36.788Z,31.82
2018-08-06T06:47:04.865Z,32.00
2018-08-06T06:49:32.944Z,32.10
2018-08-06T06:52:01.094Z,32.25
2018-08-06T06:54:29.221Z,32.49
2018-08-06T06:56:57.645Z,32.77
2018-08-06T06:59:25.839Z,32.91
2018-08-06T07:01:53.889Z,32.31
2018-08-06T07:04:22.297Z,32.26
2018-08-06T07:06:50.482Z,32.35
2018-08-06T07:09:18.508Z,32.39
2018-08-06T07:11:46.600Z,32.53
2018-08-06T07:14:14.669Z,32.46
2018-08-06T07:16:42.727Z,32.56
2018-08-06T07:19:10.816Z,32.61
2018-08-06T07:21:38.875Z,32.73
2018-08-06T07:24:07.295Z,32.67
2018-08-06T07:26:35.568Z,32.99
2018-08-06T07:29:03.664Z,32.94
2018-08-06T07:31:31.891Z,32.84
2018-08-06T07:33:59.947Z,32.90
2018-08-06T07:36:28.045Z,32.85
2018-08-06T07:38:56.112Z,33.16
2018-08-06T07:41:24.178Z,33.24
2018-08-06T07:43:52.263Z,32.88
2018-08-06T07:46:20.376Z,32.75
2018-08-06T07:48:48.428Z,32.78
2018-08-06T07:51:16.928Z,33.13
2018-08-06T07:53:45.052Z,33.49
2018-08-06T07:56:13.109Z,33.80
2018-08-06T07:58:41.192Z,33.98
2018-08-06T08:01:09.271Z,33.97
2018-08-06T08:03:37.383Z,33.91
2018-08-06T08:06:05.538Z,34.00
2018-08-06T08:08:33.602Z,33.92
2018-08-06T08:11:01.704Z,33.98
2018-08-06T08:13:29.835Z,34.16
2018-08-06T08:15:57.962Z,34.36
2018-08-06T08:18:26.071Z,34.54
2018-08-06T08:20:54.225Z,34.39
2018-08-06T08:23:22.404Z,34.43
2018-08-06T08:25:50.491Z,33.56
2018-08-06T08:28:18.763Z,33.40
2018-08-06T08:30:46.867Z,33.40
2018-08-06T08:33:14.943Z,33.47
2018-08-06T08:35:43.100Z,33.18
2018-08-06T08:38:11.411Z,33.28
2018-08-06T08:40:39.535Z,33.04
2018-08-06T08:43:07.662Z,33.27
2018-08-06T08:45:35.740Z,33.23
2018-08-06T08:48:03.920Z,33.11
2018-08-06T08:50:32.219Z,33.11
2018-08-06T08:53:00.332Z,33.24
2018-08-06T08:55:28.431Z,33.18
2018-08-06T08:57:56.526Z,32.89
2018-08-06T09:00:24.588Z,32.61
2018-08-06T09:02:53.217Z,32.03
2018-08-06T09:05:21.493Z,31.91
2018-08-06T09:07:50.243Z,32.14
2018-08-06T09:10:19.179Z,32.34
2018-08-06T09:12:47.491Z,32.30
2018-08-06T09:15:20.831Z,32.17
2018-08-06T09:17:48.882Z,32.39
2018-08-06T09:20:16.928Z,32.24
2018-08-06T09:22:45.838Z,32.10
2018-08-06T09:25:14.285Z,32.48
2018-08-06T09:27:43.585Z,32.32
2018-08-06T09:30:14.635Z,32.47
2018-08-06T09:32:44.356Z,32.88
2018-08-06T09:35:13.375Z,33.22
2018-08-06T09:37:42.747Z,33.68
2018-08-06T09:40:13.767Z,34.02
2018-08-06T09:42:42.498Z,34.06
2018-08-06T09:45:13.447Z,34.35
2018-08-06T09:47:42.841Z,34.62
2018-08-06T09:50:11.851Z,34.89
2018-08-06T09:52:40.342Z,34.98
2018-08-06T09:55:10.603Z,34.99
2018-08-06T09:57:38.798Z,34.78
2018-08-06T10:00:14.703Z,34.05
2018-08-06T10:02:42.824Z,33.13
2018-08-06T10:05:10.848Z,32.45
2018-08-06T10:07:38.909Z,32.09
2018-08-06T10:10:09.179Z,31.98
2018-08-06T10:12:37.279Z,31.71
2018-08-06T10:15:05.960Z,31.58
2018-08-06T10:17:34.263Z,31.30
2018-08-06T10:20:02.844Z,31.05
2018-08-06T10:22:30.962Z,30.87
2018-08-06T10:24:59.049Z,30.93
2018-08-06T10:27:27.111Z,30.91
2018-08-06T10:29:55.608Z,30.78
2018-08-06T10:32:23.691Z,30.72
2018-08-06T10:34:51.723Z,30.69
2018-08-06T10:37:19.913Z,30.67
2018-08-06T10:39:47.999Z,30.70
2018-08-06T10:42:16.064Z,30.41
2018-08-06T10:44:44.443Z,30.26
2018-08-06T10:47:13.171Z,30.21
2018-08-06T10:49:41.355Z,30.06
2018-08-06T10:52:09.399Z,30.12
2018-08-06T10:54:37.636Z,30.10
2018-08-06T10:57:06.255Z,30.18
2018-08-06T10:59:34.861Z,30.25
2018-08-06T11:02:02.954Z,30.41
2018-08-06T11:04:31.091Z,30.53
2018-08-06T11:06:59.190Z,30.62
2018-08-06T11:09:27.221Z,30.68
2018-08-06T11:11:55.517Z,30.75
2018-08-06T11:14:23.748Z,30.81
2018-08-06T11:16:51.877Z,30.87
2018-08-06T11:19:19.924Z,30.94
2018-08-06T11:21:48.172Z,31.01
2018-08-06T11:24:16.266Z,30.86
2018-08-06T11:26:49.077Z,30.76
2018-08-06T11:29:17.200Z,30.76
2018-08-06T11:31:45.638Z,30.71
2018-08-06T11:34:13.788Z,30.88
2018-08-06T11:36:42.155Z,30.96
2018-08-06T11:39:11.391Z,31.06
2018-08-06T11:41:39.508Z,31.14
2018-08-06T11:44:08.558Z,31.12
2018-08-06T11:46:36.839Z,31.06
2018-08-06T11:49:05.160Z,31.14
2018-08-06T11:51:33.255Z,31.16
2018-08-06T11:54:01.412Z,31.21
2018-08-06T11:56:29.530Z,31.24
2018-08-06T11:58:57.624Z,31.21
2018-08-06T12:01:25.884Z,31.26
2018-08-06T12:03:54.263Z,31.30
2018-08-06T12:06:22.337Z,31.24
2018-08-06T12:08:50.408Z,31.25
2018-08-06T12:11:18.434Z,31.17
2018-08-06T12:13:46.505Z,31.21
2018-08-06T12:16:14.515Z,31.22
2018-08-06T12:18:42.625Z,31.34
2018-08-06T12:21:10.897Z,31.37
2018-08-06T12:23:38.993Z,31.43
2018-08-06T12:26:07.115Z,31.37
2018-08-06T12:28:35.495Z,31.36
2018-08-06T12:31:03.568Z,31.46
2018-08-06T12:33:31.668Z,31.58
2018-08-06T12:35:59.719Z,31.68
2018-08-06T12:38:39.332Z,31.85
2018-08-06T12:41:07.388Z,31.91
2018-08-06T12:43:35.447Z,32.01
2018-08-06T12:46:05.477Z,32.10
2018-08-06T12:48:33.565Z,32.21
2018-08-06T12:51:01.651Z,32.25
2018-08-06T12:53:29.739Z,32.23
2018-08-06T12:55:57.830Z,32.20
2018-08-06T12:58:26.059Z,32.20
2018-08-06T13:00:54.100Z,32.19
2018-08-06T13:03:22.155Z,32.13
2018-08-06T13:05:50.238Z,32.13
2018-08-06T13:08:18.336Z,32.18
2018-08-06T13:10:46.416Z,32.17
2018-08-06T13:13:14.463Z,32.27
2018-08-06T13:15:42.565Z,32.30
2018-08-06T13:18:10.642Z,32.28
2018-08-06T13:20:38.923Z,32.35
2018-08-06T13:23:07.132Z,32.43
2018-08-06T13:25:35.248Z,32.44
2018-08-06T13:28:03.376Z,32.47
2018-08-06T13:30:31.435Z,32.49
2018-08-06T13:32:59.525Z,32.50
2018-08-06T13:35:27.770Z,32.53
2018-08-06T13:37:56.376Z,32.55
2018-08-06T13:40:24.448Z,32.54
2018-08-06T13:42:52.536Z,32.55
2018-08-06T13:45:20.656Z,32.56
2018-08-06T13:47:48.727Z,32.61
2018-08-06T13:50:16.919Z,32.65
2018-08-06T13:52:45.043Z,32.65
2018-08-06T13:55:13.672Z,32.67
2018-08-06T13:57:42.165Z,32.66
2018-08-06T14:00:17.203Z,32.70
2018-08-06T14:02:45.519Z,32.61
2018-08-06T14:05:14.885Z,32.59
2018-08-06T14:07:43.912Z,32.58
2018-08-06T14:10:11.969Z,32.60
2018-08-06T14:12:40.074Z,32.65
2018-08-06T14:15:10.040Z,32.49
2018-08-06T14:17:38.971Z,32.57
2018-08-06T14:20:07.477Z,32.64
2018-08-06T14:22:38.306Z,32.69
2018-08-06T14:25:07.006Z,32.74
2018-08-06T14:27:35.095Z,32.81
2018-08-06T14:30:03.260Z,32.76
2018-08-06T14:32:31.307Z,32.81
2018-08-06T14:34:59.486Z,32.78
2018-08-06T14:37:27.594Z,32.78
2018-08-06T14:39:55.845Z,32.77
2018-08-06T14:42:23.972Z,32.82
2018-08-06T14:44:52.176Z,32.76
2018-08-06T14:47:20.235Z,32.74
2018-08-06T14:49:48.339Z,32.82
2018-08-06T14:52:16.449Z,32.83
2018-08-06T14:54:44.846Z,32.83
2018-08-06T14:57:12.944Z,32.85
2018-08-06T14:59:41.023Z,32.76
2018-08-06T15:02:09.076Z,32.85
2018-08-06T15:04:37.176Z,32.83
2018-08-06T15:07:05.315Z,32.82
2018-08-06T15:09:33.381Z,32.83
2018-08-06T15:12:02.516Z,32.87
2018-08-06T15:14:30.892Z,32.89
2018-08-06T15:16:59.015Z,32.90
2018-08-06T15:19:27.031Z,32.95
2018-08-06T15:21:55.511Z,32.95
2018-08-06T15:24:24.047Z,32.84
2018-08-06T15:26:52.247Z,32.98
2018-08-06T15:29:20.305Z,33.03
2018-08-06T15:31:48.496Z,33.06
2018-08-06T15:34:16.742Z,33.06
2018-08-06T15:36:44.902Z,33.09
2018-08-06T15:39:15.055Z,33.14
2018-08-06T15:41:43.994Z,33.16
2018-08-06T15:44:12.442Z,33.12
2018-08-06T15:46:40.585Z,32.91
2018-08-06T15:49:08.675Z,32.95
2018-08-06T15:51:38.500Z,32.98
2018-08-06T15:57:03.728Z,32.95
2018-08-06T15:59:32.513Z,32.92
2018-08-06T16:02:04.670Z,32.94
2018-08-06T16:04:34.321Z,32.96
2018-08-06T16:07:40.554Z,32.96
2018-08-06T16:10:13.962Z,32.95
2018-08-06T16:12:43.293Z,32.94
2018-08-06T16:15:18.206Z,32.95
2018-08-06T16:17:47.540Z,33.02
2018-08-06T16:20:20.184Z,33.02
2018-08-06T16:22:51.516Z,33.02
2018-08-06T16:25:19.637Z,32.96
2018-08-06T16:27:47.712Z,32.94
2018-08-06T16:30:17.274Z,32.94
2018-08-06T16:32:46.442Z,32.95
2018-08-06T16:35:15.233Z,32.93
2018-08-06T16:37:43.335Z,32.87
2018-08-06T16:40:12.004Z,32.84
2018-08-06T16:42:40.161Z,32.82
2018-08-06T16:45:08.927Z,32.80
2018-08-06T16:47:38.010Z,32.78
2018-08-06T16:50:07.387Z,32.76
2018-08-06T16:52:35.491Z,32.73
2018-08-06T16:55:04.726Z,32.70
2018-08-06T16:57:33.160Z,32.64
2018-08-06T17:00:01.285Z,32.57
2018-08-06T17:02:29.961Z,32.52
2018-08-06T17:04:58.151Z,32.49
2018-08-06T17:07:26.222Z,32.50
2018-08-06T17:09:54.264Z,32.54
2018-08-06T17:12:22.444Z,32.57
2018-08-06T17:14:50.531Z,32.59
2018-08-06T17:17:18.591Z,32.62
2018-08-06T17:19:46.744Z,32.66
2018-08-06T17:22:15.159Z,32.66
2018-08-06T17:24:43.757Z,32.68
2018-08-06T17:27:12.809Z,32.66
2018-08-06T17:29:41.003Z,32.64
2018-08-06T17:32:09.183Z,32.56
2018-08-06T17:34:37.576Z,32.58
2018-08-06T17:37:05.649Z,32.52
2018-08-06T17:39:33.679Z,32.37
2018-08-06T17:42:01.775Z,32.34
2018-08-06T17:44:30.881Z,32.35
2018-08-06T17:46:58.957Z,32.35
2018-08-06T17:49:27.304Z,32.30
2018-08-06T17:51:56.231Z,32.31
2018-08-06T17:54:24.359Z,32.26
2018-08-06T17:56:52.387Z,32.22
2018-08-06T17:59:20.531Z,32.18
2018-08-06T18:01:48.566Z,32.12
2018-08-06T18:04:17.187Z,32.06
2018-08-06T18:06:45.350Z,32.01
2018-08-06T18:09:13.423Z,31.96
2018-08-06T18:11:41.511Z,31.90
2018-08-06T18:14:09.568Z,31.84
2018-08-06T18:16:37.633Z,31.77
2018-08-06T18:19:05.796Z,31.73
2018-08-06T18:21:33.983Z,31.68
2018-08-06T18:24:02.071Z,31.63
2018-08-06T18:26:30.123Z,31.56
2018-08-06T18:28:58.163Z,31.45
2018-08-06T18:31:26.247Z,31.36
2018-08-06T18:33:54.292Z,31.28
2018-08-06T18:36:22.392Z,31.16
2018-08-06T18:38:50.455Z,31.05
2018-08-06T18:41:19.490Z,30.92
2018-08-06T18:43:47.563Z,30.83
2018-08-06T18:46:15.623Z,30.76
2018-08-06T18:48:43.675Z,30.64
2018-08-06T18:51:11.700Z,30.56
2018-08-06T18:53:39.755Z,30.47
2018-08-06T18:56:07.787Z,30.44
2018-08-06T18:58:36.007Z,30.17
2018-08-06T19:01:04.101Z,30.22
2018-08-06T19:03:32.147Z,30.13
2018-08-06T19:06:00.272Z,30.03
2018-08-06T19:08:28.392Z,29.90
2018-08-06T19:10:56.551Z,29.74
2018-08-06T19:13:30.241Z,29.60
2018-08-06T19:15:58.295Z,29.43
2018-08-06T19:18:31.709Z,29.27
2018-08-06T19:20:59.793Z,29.08
2018-08-06T19:23:28.072Z,28.95
2018-08-06T19:25:56.168Z,28.78
2018-08-06T19:28:24.243Z,28.67
2018-08-06T19:30:57.647Z,28.60
2018-08-06T19:33:25.807Z,28.51
2018-08-06T19:35:53.888Z,28.41
2018-08-06T19:38:22.105Z,28.36
2018-08-06T19:40:50.185Z,28.23
2018-08-06T19:43:24.298Z,28.13
2018-08-06T19:45:52.340Z,28.02
2018-08-06T19:48:20.418Z,27.93
2018-08-06T19:50:48.533Z,27.83
2018-08-06T19:53:16.590Z,27.75
2018-08-06T19:55:50.368Z,27.64
2018-08-06T19:58:18.546Z,27.54
2018-08-06T20:00:46.605Z,27.46
2018-08-06T20:03:14.663Z,27.39
2018-08-06T20:05:42.711Z,27.33
2018-08-06T20:08:10.743Z,27.27
2018-08-06T20:10:38.782Z,27.21
2018-08-06T20:13:06.807Z,27.15
2018-08-06T20:15:34.851Z,27.09
2018-08-06T20:18:03.011Z,27.01
2018-08-06T20:20:31.309Z,26.90
2018-08-06T20:22:59.350Z,26.85
2018-08-06T20:25:27.400Z,26.77
2018-08-06T20:27:55.474Z,26.69
2018-08-06T20:30:23.835Z,26.61
2018-08-06T20:32:51.945Z,26.54
2018-08-06T20:35:20.640Z,26.44
2018-08-06T20:37:48.654Z,26.33
2018-08-06T20:40:16.720Z,26.24
2018-08-06T20:42:45.988Z,26.17
2018-08-06T20:45:16.648Z,26.10
2018-08-06T20:47:45.035Z,26.02
2018-08-06T20:50:16.240Z,25.97
2018-08-06T20:52:45.189Z,25.90
2018-08-06T20:55:13.267Z,25.81
2018-08-06T20:57:41.879Z,25.73
2018-08-06T21:00:15.045Z,25.66
2018-08-06T21:02:43.287Z,25.60
2018-08-06T21:05:11.158Z,25.49
2018-08-06T21:07:40.080Z,25.36
2018-08-06T21:10:09.572Z,25.26
2018-08-06T21:12:38.059Z,25.19
2018-08-06T21:15:06.578Z,25.15
2018-08-06T21:17:34.637Z,25.08
2018-08-06T21:20:03.248Z,25.01
2018-08-06T21:22:31.528Z,24.97
2018-08-06T21:24:59.562Z,24.93
2018-08-06T21:27:27.707Z,24.89
2018-08-06T21:29:56.093Z,24.85
2018-08-06T21:32:24.140Z,24.79
2018-08-06T21:34:52.182Z,24.74
2018-08-06T21:37:20.218Z,24.70
2018-08-06T21:39:48.299Z,24.67
2018-08-06T21:42:16.338Z,24.61
2018-08-06T21:44:44.484Z,24.57
2018-08-06T21:47:12.452Z,24.51
2018-08-06T21:49:40.503Z,24.45
2018-08-06T21:52:08.732Z,24.36
2018-08-06T21:54:36.759Z,24.30
2018-08-06T21:57:04.834Z,24.26
2018-08-06T21:59:33.009Z,24.21
2018-08-06T22:02:01.107Z,24.16
2018-08-06T22:04:29.152Z,24.06
2018-08-06T22:06:57.181Z,24.00
2018-08-06T22:09:25.245Z,23.95
2018-08-06T22:11:53.631Z,23.86
2018-08-06T22:14:21.729Z,23.78
2018-08-06T22:16:49.767Z,23.74
2018-08-06T22:19:17.852Z,23.73
2018-08-06T22:21:46.211Z,23.70
2018-08-06T22:24:14.263Z,23.65
2018-08-06T22:26:42.296Z,23.55
2018-08-06T22:29:10.354Z,23.54
2018-08-06T22:31:38.415Z,23.48
2018-08-06T22:34:06.436Z,23.39
2018-08-06T22:36:34.489Z,23.34
2018-08-06T22:39:02.527Z,23.26
2018-08-06T22:41:30.568Z,23.22
2018-08-06T22:43:58.767Z,23.11
2018-08-06T22:46:26.889Z,23.03
2018-08-06T22:48:55.026Z,22.96
2018-08-06T22:51:23.059Z,22.89
2018-08-06T22:53:51.092Z,22.81
2018-08-06T22:56:19.131Z,22.73
2018-08-06T22:58:47.152Z,22.69
2018-08-06T23:01:15.215Z,22.67
2018-08-06T23:03:43.295Z,22.63
2018-08-06T23:06:11.356Z,22.60
2018-08-06T23:08:39.453Z,22.54
2018-08-06T23:11:07.971Z,22.45
2018-08-06T23:13:36.012Z,22.42
2018-08-06T23:16:04.043Z,22.38
2018-08-06T23:18:32.443Z,22.36
2018-08-06T23:21:00.501Z,22.31
2018-08-06T23:23:28.552Z,22.22
2018-08-06T23:25:56.614Z,22.15
2018-08-06T23:28:24.656Z,22.12
2018-08-06T23:30:52.699Z,22.11
2018-08-06T23:33:20.763Z,22.10
2018-08-06T23:35:48.967Z,22.11
2018-08-06T23:38:17.001Z,22.07
2018-08-06T23:40:45.053Z,21.99
2018-08-06T23:43:13.094Z,21.93
2018-08-06T23:45:41.132Z,21.90
2018-08-06T23:48:09.231Z,21.90
2018-08-06T23:50:37.256Z,21.90
2018-08-06T23:53:05.755Z,21.85
2018-08-06T23:55:33.759Z,21.77
2018-08-06T23:58:01.812Z,21.69
